Time;durP1;ratioP1;P1;durP2;ratioP2;P2;SDS_P1;SDS_P2;PMS_P1;PMS_P2;Temp;Humidity;BMP_temperature;BMP_pressure;BME280_temperature;BME280_humidity;BME280_pressure;Samples;Min_cycle;Max_cycle;Signal;HPM_P1;HPM_P2
2021/03/15 00:02:23;;;;;;;2.58;0.70;;;;;;;17.38;57.00;101022.22;6295443;22;20007;-79
2021/03/15 00:04:56;;;;;;;1.83;0.80;;;;;;;17.36;56.85;101010.97;6297724;22;20012;-79
2021/03/15 00:07:37;;;;;;;3.33;0.77;;;;;;;17.36;56.95;101013.56;6296912;22;20000;-79
2021/03/15 00:10:32;;;;;;;1.10;0.55;;;;;;;17.35;56.84;101008.34;6296715;22;20015;-79
2021/03/15 00:16:26;;;;;;;2.63;0.82;;;;;;;17.38;56.93;101017.03;6303545;22;20069;-79
2021/03/15 00:21:35;;;;;;;1.48;0.70;;;;;;;17.36;56.80;101010.09;6264667;22;20342;-79
2021/03/15 00:24:02;;;;;;;1.88;0.77;;;;;;;17.33;56.84;101016.16;6280194;22;20023;-79
2021/03/15 00:26:30;;;;;;;2.92;0.77;;;;;;;17.35;56.80;101019.63;6293512;22;20020;-80
2021/03/15 00:29:05;;;;;;;0.95;0.70;;;;;;;17.35;56.86;101029.16;6270304;22;20019;-79
2021/03/15 00:31:38;;;;;;;2.42;0.60;;;;;;;17.34;56.90;101020.50;6272976;22;20015;-79
2021/03/15 00:34:03;;;;;;;0.70;0.50;;;;;;;17.35;56.84;101026.56;6278574;22;20024;-79
2021/03/15 00:36:30;;;;;;;2.20;0.70;;;;;;;17.35;56.71;101024.81;6269149;22;20262;-79
2021/03/15 00:38:55;;;;;;;2.70;0.82;;;;;;;17.33;56.69;101028.31;6296593;22;20054;-79
2021/03/15 00:41:28;;;;;;;1.83;0.70;;;;;;;17.33;56.73;101023.09;6293596;22;20029;-79
2021/03/15 00:46:23;;;;;;;1.75;0.60;;;;;;;17.32;56.76;101022.25;6262382;22;20028;-79
2021/03/15 00:48:49;;;;;;;1.75;0.70;;;;;;;17.33;56.61;101036.97;6258953;23;20024;-79
2021/03/15 00:51:14;;;;;;;3.45;0.70;;;;;;;17.33;56.69;101033.50;6230001;23;20062;-79
2021/03/15 00:54:21;;;;;;;2.92;0.60;;;;;;;17.34;56.60;101037.84;6236240;23;20008;-79
2021/03/15 00:56:47;;;;;;;1.63;0.65;;;;;;;17.31;56.78;101030.06;6235786;22;20028;-79
2021/03/15 00:59:18;;;;;;;1.55;0.70;;;;;;;17.31;56.66;101036.16;6277164;22;20024;-78
2021/03/15 01:01:44;;;;;;;1.35;0.63;;;;;;;17.31;56.62;101032.66;6275532;22;20078;-79
2021/03/15 01:04:31;;;;;;;1.63;0.63;;;;;;;17.33;56.56;101044.78;6271323;22;19991;-79
2021/03/15 01:12:35;;;;;;;0.90;0.55;;;;;;;17.31;56.66;101037.84;6268045;22;20034;-80
2021/03/15 01:15:10;;;;;;;1.02;0.60;;;;;;;17.28;56.63;101039.59;6205091;23;20064;-79
2021/03/15 01:17:38;;;;;;;1.27;0.60;;;;;;;17.32;56.60;101040.47;6243583;22;19998;-79
2021/03/15 01:20:15;;;;;;;1.33;0.63;;;;;;;17.28;56.80;101039.59;6174229;23;20016;-79
2021/03/15 01:22:56;;;;;;;1.17;0.60;;;;;;;17.30;56.60;101046.53;6156773;23;20010;-79
2021/03/15 01:25:53;;;;;;;1.42;0.73;;;;;;;17.28;56.70;101030.94;6135417;23;20048;-79
2021/03/15 01:28:20;;;;;;;2.35;0.70;;;;;;;17.31;56.59;101040.47;6155936;23;20020;-80
2021/03/15 01:30:48;;;;;;;1.38;0.60;;;;;;;17.31;56.68;101035.25;6131647;23;20430;-79
2021/03/15 01:33:20;;;;;;;1.35;0.75;;;;;;;17.28;56.49;101034.41;6155316;23;20065;-79
2021/03/15 01:35:46;;;;;;;1.05;0.50;;;;;;;17.30;56.75;101037.00;6181270;23;19997;-80
2021/03/15 01:38:20;;;;;;;1.50;0.57;;;;;;;17.27;56.61;101032.69;6156607;23;20024;-79
2021/03/15 01:41:12;;;;;;;1.33;0.63;;;;;;;17.27;56.49;101037.88;6179506;23;20009;-79
2021/03/15 01:43:57;;;;;;;1.10;0.50;;;;;;;17.27;56.56;101040.50;6180873;23;20006;-79
2021/03/15 01:46:31;;;;;;;1.20;0.60;;;;;;;17.27;56.47;101037.88;6156570;23;20142;-79
2021/03/15 01:52:38;;;;;;;1.80;0.60;;;;;;;17.29;56.42;101043.09;6212447;23;20020;-80
2021/03/15 01:55:05;;;;;;;1.13;0.50;;;;;;;17.27;56.23;101044.84;6209495;23;20001;-79
2021/03/15 01:57:31;;;;;;;1.63;0.50;;;;;;;17.25;56.50;101044.81;6210311;23;20017;-79
2021/03/15 02:02:30;;;;;;;1.38;0.60;;;;;;;17.26;56.43;101050.88;6301912;22;20026;-79
2021/03/15 02:05:18;;;;;;;2.35;0.68;;;;;;;17.25;56.48;101055.22;6279984;22;20016;-79
2021/03/15 02:07:47;;;;;;;1.75;0.65;;;;;;;17.26;56.53;101054.34;6275024;22;20028;-79
2021/03/15 02:10:24;;;;;;;1.90;0.52;;;;;;;17.24;56.31;101050.88;6301983;22;20063;-80
2021/03/15 02:13:26;;;;;;;2.00;0.43;;;;;;;17.26;56.33;101054.34;6275737;22;20014;-79
2021/03/15 02:16:26;;;;;;;2.35;0.68;;;;;;;17.26;56.29;101062.16;6300971;22;20014;-79
2021/03/15 02:19:27;;;;;;;1.30;0.45;;;;;;;17.25;56.24;101055.22;6302459;22;19999;-79
2021/03/15 02:22:27;;;;;;;1.23;0.50;;;;;;;17.24;56.38;101061.28;6235795;22;20031;-80
2021/03/15 02:25:36;;;;;;;0.52;0.35;;;;;;;17.25;56.54;101057.84;6300394;22;19999;-79
2021/03/15 02:28:38;;;;;;;1.15;0.40;;;;;;;17.23;56.51;101059.56;6302802;22;20053;-79
2021/03/15 02:31:37;;;;;;;1.52;0.57;;;;;;;17.24;56.34;101065.63;6300289;22;20015;-80
2021/03/15 02:34:40;;;;;;;1.15;0.52;;;;;;;17.25;56.32;101064.78;6271089;22;19991;-78
2021/03/15 02:37:10;;;;;;;1.75;0.50;;;;;;;17.21;56.61;101063.91;6272590;22;20035;-78
2021/03/15 02:39:40;;;;;;;0.90;0.50;;;;;;;17.24;56.20;101068.22;6293464;22;20030;-78
2021/03/15 02:42:10;;;;;;;0.73;0.50;;;;;;;17.22;56.35;101064.78;6275373;22;20002;-78
2021/03/15 02:44:36;;;;;;;1.15;0.40;;;;;;;17.22;56.36;101069.97;6273874;22;20045;-77
2021/03/15 02:47:08;;;;;;;0.85;0.47;;;;;;;17.21;56.40;101063.91;6295914;22;20003;-78
2021/03/15 02:49:36;;;;;;;1.23;0.50;;;;;;;17.23;56.38;101067.38;6220478;22;20027;-77
2021/03/15 02:52:03;;;;;;;1.15;0.45;;;;;;;17.21;56.36;101063.06;6182502;23;20013;-80
2021/03/15 02:54:31;;;;;;;1.42;0.60;;;;;;;17.20;56.43;101057.00;6180886;23;20005;-80
2021/03/15 02:56:57;;;;;;;0.95;0.45;;;;;;;17.21;56.46;101058.72;6181988;23;20012;-80
2021/03/15 02:59:32;;;;;;;1.27;0.50;;;;;;;17.21;56.27;101068.25;6156139;23;20009;-77
2021/03/15 03:02:00;;;;;;;1.42;0.50;;;;;;;17.20;56.14;101063.91;6180143;23;20017;-77
2021/03/15 03:04:32;;;;;;;0.70;0.50;;;;;;;17.21;56.30;101071.72;6179835;23;20087;-77
2021/03/15 03:09:35;;;;;;;2.55;0.70;;;;;;;17.21;56.13;101079.53;6233643;23;20021;-78
2021/03/15 03:12:02;;;;;;;0.77;0.40;;;;;;;17.18;56.29;101076.06;6229007;23;20009;-78
2021/03/15 03:15:06;;;;;;;1.02;0.50;;;;;;;17.20;56.09;101079.53;6230446;23;20005;-78
2021/03/15 03:17:44;;;;;;;1.10;0.50;;;;;;;17.21;56.27;101092.53;6237232;23;20013;-78
2021/03/15 03:22:47;;;;;;;1.50;0.75;;;;;;;17.19;56.14;101094.25;6323920;22;20019;-78
2021/03/15 03:25:16;;;;;;;0.82;0.47;;;;;;;17.18;56.03;101089.06;6301164;22;20031;-79
2021/03/15 03:27:47;;;;;;;0.80;0.50;;;;;;;17.17;56.31;101090.81;6299217;22;20011;-79
2021/03/15 03:30:15;;;;;;;1.35;0.52;;;;;;;17.18;56.00;101099.47;6297365;22;20014;-80
2021/03/15 03:36:06;;;;;;;0.95;0.40;;;;;;;17.16;56.18;101104.69;6205307;23;20032;-78
2021/03/15 03:38:32;;;;;;;1.13;0.45;;;;;;;17.18;56.20;101108.16;6179675;23;20021;-79
2021/03/15 03:41:00;;;;;;;1.23;0.52;;;;;;;17.18;56.18;101113.34;6178568;23;20011;-79
2021/03/15 03:43:30;;;;;;;0.93;0.40;;;;;;;17.17;56.26;101113.34;6242514;22;20020;-77
2021/03/15 03:45:55;;;;;;;0.80;0.50;;;;;;;17.17;55.99;101118.56;6275326;22;20023;-79
2021/03/15 03:48:22;;;;;;;1.13;0.40;;;;;;;17.16;56.16;101117.69;6239307;22;20029;-79
2021/03/15 03:53:26;;;;;;;0.73;0.40;;;;;;;17.15;56.12;101115.94;6254280;22;20019;-79
2021/03/15 03:56:00;;;;;;;1.20;0.50;;;;;;;17.17;56.13;101134.16;6290069;22;20017;-78
2021/03/15 03:58:30;;;;;;;1.00;0.43;;;;;;;17.17;56.16;101121.16;6257453;22;20013;-78
2021/03/15 04:01:07;;;;;;;1.52;0.50;;;;;;;17.14;56.24;101127.22;6245547;22;20051;-79
2021/03/15 04:03:44;;;;;;;0.80;0.43;;;;;;;17.13;56.11;101127.22;6239930;23;20757;-79
2021/03/15 04:06:12;;;;;;;1.38;0.45;;;;;;;17.17;56.04;101139.34;6265690;23;20019;-79
2021/03/15 04:09:01;;;;;;;0.70;0.30;;;;;;;17.17;55.94;101139.34;6239943;23;20019;-79
2021/03/15 04:11:30;;;;;;;1.40;0.40;;;;;;;17.14;56.09;101142.84;6246414;22;20025;-79
2021/03/15 04:13:58;;;;;;;0.60;0.40;;;;;;;17.15;56.11;101141.09;6234892;23;20012;-78
2021/03/15 04:16:39;;;;;;;3.13;0.50;;;;;;;17.15;56.10;101154.09;6227873;23;20024;-79
2021/03/15 04:19:06;;;;;;;1.00;0.38;;;;;;;17.16;56.15;101161.00;6215647;23;20015;-78
2021/03/15 04:21:34;;;;;;;1.10;0.47;;;;;;;17.14;56.04;101157.59;6239546;23;20004;-79
2021/03/15 04:24:01;;;;;;;0.77;0.50;;;;;;;17.15;55.95;101164.50;6189633;23;20011;-78
2021/03/15 04:26:27;;;;;;;1.38;0.50;;;;;;;17.12;56.32;101154.97;6240421;23;20064;-78
2021/03/15 04:28:55;;;;;;;1.08;0.40;;;;;;;17.13;56.21;101167.09;6266598;23;20067;-79
2021/03/15 04:31:23;;;;;;;0.88;0.40;;;;;;;17.13;56.21;101171.44;6242783;23;20005;-79
2021/03/15 04:33:50;;;;;;;1.20;0.47;;;;;;;17.13;56.22;101172.28;6240088;23;20012;-78
2021/03/15 04:36:24;;;;;;;0.60;0.32;;;;;;;17.13;56.14;101177.50;6265857;23;20008;-78
2021/03/15 04:38:53;;;;;;;0.80;0.40;;;;;;;17.14;55.93;101181.84;6239339;23;20011;-78
2021/03/15 04:41:21;;;;;;;0.60;0.40;;;;;;;17.11;56.13;101181.84;6249061;23;20039;-78
2021/03/15 04:43:48;;;;;;;1.42;0.50;;;;;;;17.14;56.00;101186.19;6212008;23;20092;-78
2021/03/15 04:46:17;;;;;;;0.43;0.38;;;;;;;17.14;55.85;101187.03;6212359;23;20004;-78
2021/03/15 04:48:45;;;;;;;1.58;0.55;;;;;;;17.11;55.95;101181.84;6290996;22;20004;-78
2021/03/15 04:51:21;;;;;;;1.13;0.50;;;;;;;17.13;56.04;101189.63;6269842;22;20042;-78
2021/03/15 04:53:48;;;;;;;1.40;0.50;;;;;;;17.12;56.03;101199.19;6243594;22;20497;-78
2021/03/15 04:56:19;;;;;;;2.38;0.70;;;;;;;17.13;55.91;101205.25;6293309;22;20057;-78
2021/03/15 04:58:58;;;;;;;1.58;0.50;;;;;;;17.10;55.98;101200.91;6265661;22;20031;-78
2021/03/15 05:01:28;;;;;;;0.93;0.40;;;;;;;17.11;55.93;101213.03;6293465;22;20004;-77
2021/03/15 05:03:56;;;;;;;1.40;0.38;;;;;;;17.10;56.06;101221.72;6265066;22;20026;-78
2021/03/15 05:06:39;;;;;;;0.75;0.40;;;;;;;17.10;55.90;101226.91;6265009;22;20035;-78
2021/03/15 05:09:08;;;;;;;1.10;0.50;;;;;;;17.10;56.14;101223.47;6268891;22;20004;-78
2021/03/15 05:11:37;;;;;;;1.55;0.50;;;;;;;17.09;55.85;101221.72;6264052;22;20030;-78
2021/03/15 05:14:04;;;;;;;0.98;0.38;;;;;;;17.09;55.74;101224.31;6267017;22;20011;-78
2021/03/15 05:16:34;;;;;;;1.23;0.50;;;;;;;17.08;55.86;101235.59;6269220;22;20007;-78
2021/03/15 05:19:10;;;;;;;0.95;0.40;;;;;;;17.10;55.84;101236.47;6290626;22;20016;-78
2021/03/15 05:21:40;;;;;;;1.13;0.50;;;;;;;17.08;55.98;101230.41;6292795;22;20050;-78
2021/03/15 05:26:59;;;;;;;0.90;0.52;;;;;;;17.06;56.02;101238.19;6295455;22;20018;-78
2021/03/15 05:29:27;;;;;;;0.77;0.40;;;;;;;17.06;55.67;101240.78;6294565;22;20000;-78
2021/03/15 05:31:52;;;;;;;1.02;0.40;;;;;;;17.06;55.77;101241.66;6268589;22;20006;-78
2021/03/15 05:34:22;;;;;;;0.60;0.32;;;;;;;17.06;55.89;101244.25;6268196;22;20008;-78
2021/03/15 05:36:51;;;;;;;1.58;0.68;;;;;;;17.06;55.75;101246.84;6294552;22;20004;-78
2021/03/15 05:39:17;;;;;;;1.02;0.50;;;;;;;17.06;56.05;101246.84;6293614;22;20003;-78
2021/03/15 05:41:57;;;;;;;1.02;0.35;;;;;;;17.08;55.96;101248.59;6245581;22;20031;-78
2021/03/15 05:44:57;;;;;;;1.27;0.47;;;;;;;17.06;55.90;101248.59;6268629;22;20011;-78
2021/03/15 05:47:42;;;;;;;0.95;0.30;;;;;;;17.08;55.80;101259.84;6269208;22;20004;-79
2021/03/15 05:50:32;;;;;;;1.35;0.47;;;;;;;17.09;55.97;101261.56;6269004;22;20059;-78
2021/03/15 05:53:34;;;;;;;1.25;0.50;;;;;;;17.09;55.84;101253.78;6261187;23;20016;-78
2021/03/15 05:56:29;;;;;;;1.23;0.50;;;;;;;17.09;56.18;101264.19;6242673;23;20000;-79
2021/03/15 05:59:19;;;;;;;1.40;0.50;;;;;;;17.10;55.86;101268.53;6243068;23;20068;-78
2021/03/15 06:02:09;;;;;;;1.42;0.60;;;;;;;17.12;55.89;101269.41;6244298;23;20004;-77
2021/03/15 06:04:56;;;;;;;0.88;0.40;;;;;;;17.17;55.76;101272.00;6244196;23;19996;-78
2021/03/15 06:07:29;;;;;;;2.42;0.70;;;;;;;17.17;55.71;101274.59;6243664;23;20050;-78
2021/03/15 06:10:09;;;;;;;1.45;0.50;;;;;;;17.16;55.83;101263.31;6243265;23;20004;-78
2021/03/15 06:12:46;;;;;;;1.92;0.50;;;;;;;17.18;55.83;101268.50;6269131;23;19997;-78
2021/03/15 06:15:13;;;;;;;3.13;0.50;;;;;;;17.17;55.99;101274.59;6241356;23;20039;-78
2021/03/15 06:17:39;;;;;;;1.83;0.60;;;;;;;17.18;55.96;101273.72;6234617;22;20029;-78
2021/03/15 06:20:06;;;;;;;4.65;0.80;;;;;;;17.19;56.05;101272.84;6187878;23;20008;-77
2021/03/15 06:22:40;;;;;;;2.88;0.98;;;;;;;17.27;56.04;101276.31;6214388;23;20030;-80
2021/03/15 06:25:06;;;;;;;8.70;1.20;;;;;;;17.36;55.89;101281.50;6187349;23;20340;-78
2021/03/15 06:27:33;;;;;;;5.38;1.20;;;;;;;17.43;55.92;101282.34;6239654;23;20028;-78
2021/03/15 06:30:00;;;;;;;5.53;1.33;;;;;;;17.46;55.53;101280.63;6210313;23;20012;-79
2021/03/15 06:32:28;;;;;;;5.28;1.45;;;;;;;17.50;55.79;101284.06;6212849;23;20009;-78
2021/03/15 06:34:57;;;;;;;6.88;1.90;;;;;;;17.54;55.40;101287.53;6238753;23;20035;-78
2021/03/15 06:37:43;;;;;;;5.00;1.52;;;;;;;17.58;55.64;101284.94;6187833;23;20009;-78
2021/03/15 06:40:12;;;;;;;6.45;1.65;;;;;;;17.61;55.64;101290.09;6240312;23;20009;-79
2021/03/15 06:42:41;;;;;;;4.32;1.67;;;;;;;17.65;55.35;101286.63;6213317;23;20007;-78
2021/03/15 06:45:16;;;;;;;6.00;1.70;;;;;;;17.65;55.41;101296.19;6219205;22;20050;-78
2021/03/15 06:47:44;;;;;;;5.30;1.77;;;;;;;17.62;55.55;101304.00;6275616;22;20050;-79
2021/03/15 06:50:11;;;;;;;6.07;1.10;;;;;;;17.64;55.10;101295.31;6300824;22;20012;-79
2021/03/15 06:53:06;;;;;;;3.63;1.27;;;;;;;17.69;55.11;101308.31;6276424;22;20003;-79
2021/03/15 06:56:01;;;;;;;4.60;1.50;;;;;;;17.68;55.59;101322.19;6276462;22;19984;-78
2021/03/15 06:59:13;;;;;;;5.32;1.60;;;;;;;17.63;55.60;101330.00;6299058;22;20081;-81
2021/03/15 07:01:43;;;;;;;5.35;1.30;;;;;;;17.59;55.56;101333.47;6269803;22;20016;-78
2021/03/15 07:04:31;;;;;;;4.30;1.30;;;;;;;17.57;55.55;101326.56;6283250;22;20107;-78
2021/03/15 07:07:05;;;;;;;3.55;1.13;;;;;;;17.53;55.87;101336.13;6302157;22;20010;-79
2021/03/15 07:09:33;;;;;;;2.70;1.10;;;;;;;17.54;55.61;101345.66;6299918;22;20001;-78
2021/03/15 07:15:32;;;;;;;3.20;1.30;;;;;;;17.54;55.75;101353.47;6302431;22;20022;-80
2021/03/15 07:18:18;;;;;;;3.42;1.23;;;;;;;17.56;55.75;101363.88;6275449;22;20011;-79
2021/03/15 07:20:47;;;;;;;3.60;1.00;;;;;;;17.57;55.65;101361.28;6302074;22;20036;-79
2021/03/15 07:23:17;;;;;;;5.78;1.30;;;;;;;17.62;55.28;101356.94;6300562;22;20010;-78
2021/03/15 07:25:51;;;;;;;3.20;1.15;;;;;;;17.75;55.00;101362.13;6272169;22;20090;-78
2021/03/15 07:28:51;;;;;;;4.45;1.10;;;;;;;17.79;54.89;101367.31;6299663;22;20000;-79
2021/03/15 07:31:35;;;;;;;3.78;1.40;;;;;;;17.73;55.05;101363.84;6274633;22;20011;-80
2021/03/15 07:34:22;;;;;;;3.08;1.15;;;;;;;17.76;54.99;101372.50;6243871;22;20011;-80
2021/03/15 07:36:49;;;;;;;3.22;1.13;;;;;;;17.71;55.04;101371.66;6232053;23;20009;-78
2021/03/15 07:39:20;;;;;;;4.40;1.08;;;;;;;17.78;54.83;101369.91;6238470;23;20013;-79
2021/03/15 07:42:32;;;;;;;3.72;1.10;;;;;;;17.93;54.65;101384.66;6227198;22;20023;-79
2021/03/15 07:45:04;;;;;;;3.10;1.08;;;;;;;18.03;54.20;101376.84;6240586;23;20039;-79
2021/03/15 07:47:38;;;;;;;2.35;1.20;;;;;;;18.20;54.13;101376.75;6294964;22;20004;-79
2021/03/15 07:50:24;;;;;;;3.35;1.10;;;;;;;18.32;53.75;101388.88;6298522;22;20066;-79
2021/03/15 07:53:14;;;;;;;6.38;1.25;;;;;;;18.31;53.64;101397.56;6250463;22;20019;-79
2021/03/15 07:55:55;;;;;;;2.75;1.00;;;;;;;18.26;53.72;101396.72;6295405;22;20075;-79
2021/03/15 07:58:36;;;;;;;2.97;0.85;;;;;;;18.33;53.50;101402.78;6267203;22;20018;-79
2021/03/15 08:01:08;;;;;;;3.22;0.98;;;;;;;18.54;52.94;101407.91;6302582;22;20003;-82
2021/03/15 08:03:38;;;;;;;3.10;1.00;;;;;;;18.52;53.20;101416.59;6255606;22;20003;-79
2021/03/15 08:06:11;;;;;;;2.45;0.77;;;;;;;18.51;53.01;101418.34;6247578;22;20038;-79
2021/03/15 08:12:02;;;;;;;2.95;1.00;;;;;;;18.80;52.45;101420.00;6294906;22;20036;-86
2021/03/15 08:14:33;;;;;;;3.22;1.08;;;;;;;18.67;52.53;101430.44;6264583;22;20003;-82
2021/03/15 08:17:00;;;;;;;4.22;1.20;;;;;;;18.61;52.82;101427.00;6267023;22;20011;-83
2021/03/15 08:19:39;;;;;;;3.08;1.00;;;;;;;18.43;53.28;101434.00;6295023;22;20047;-83
2021/03/15 08:22:47;;;;;;;3.88;1.00;;;;;;;18.37;53.62;101441.84;6269589;22;20011;-79
2021/03/15 08:25:15;;;;;;;2.30;0.85;;;;;;;18.33;53.70;101440.13;6297698;22;20003;-79
2021/03/15 08:28:20;;;;;;;1.85;0.85;;;;;;;18.37;53.39;101451.41;6229054;22;20349;-78
2021/03/15 08:31:05;;;;;;;2.35;0.90;;;;;;;18.42;53.20;101452.25;6084238;23;20018;-79
2021/03/15 08:33:32;;;;;;;2.35;1.00;;;;;;;18.58;52.79;101448.72;6108867;23;20014;-81
2021/03/15 08:36:08;;;;;;;1.98;0.77;;;;;;;18.61;52.74;101451.31;6085371;23;20114;-79
2021/03/15 08:38:35;;;;;;;1.83;0.90;;;;;;;18.62;52.62;101458.28;6086570;23;20034;-80
2021/03/15 08:41:05;;;;;;;1.70;0.77;;;;;;;18.61;52.66;101466.09;6111649;23;20011;-82
2021/03/15 08:43:43;;;;;;;2.13;0.90;;;;;;;18.52;53.03;101467.00;6111933;23;20007;-79
2021/03/15 08:46:16;;;;;;;2.08;0.90;;;;;;;18.45;53.14;101475.72;6110106;23;20006;-78
2021/03/15 08:48:54;;;;;;;2.97;1.00;;;;;;;18.48;53.07;101475.69;6109381;23;20017;-79
2021/03/15 08:51:51;;;;;;;2.72;0.70;;;;;;;18.43;53.36;101473.09;6106367;23;20006;-78
2021/03/15 08:54:47;;;;;;;2.03;0.88;;;;;;;18.43;53.19;101477.44;6082707;23;20007;-79
2021/03/15 08:57:35;;;;;;;2.20;0.98;;;;;;;18.42;53.22;101484.41;6105212;23;20068;-78
2021/03/15 09:00:33;;;;;;;2.03;0.85;;;;;;;18.47;53.29;101487.84;6108492;23;20042;-79
2021/03/15 09:03:00;;;;;;;1.48;0.70;;;;;;;18.44;53.13;101490.50;6139140;23;20150;-79
2021/03/15 09:05:27;;;;;;;2.35;0.80;;;;;;;18.42;53.17;101489.63;6146800;23;20016;-79
2021/03/15 09:07:56;;;;;;;2.30;0.75;;;;;;;18.39;53.33;101496.56;6198188;23;20020;-78
2021/03/15 09:10:28;;;;;;;2.00;0.80;;;;;;;18.39;53.49;101500.03;6200374;23;20001;-79
2021/03/15 09:13:34;;;;;;;2.20;0.70;;;;;;;18.44;53.38;101507.84;6201021;23;20028;-78
2021/03/15 09:16:02;;;;;;;1.85;0.75;;;;;;;18.42;53.37;101506.97;6194520;23;20009;-78
2021/03/15 09:18:49;;;;;;;2.63;0.80;;;;;;;18.38;53.54;101507.84;6203926;23;20037;-78
2021/03/15 09:21:30;;;;;;;1.40;0.70;;;;;;;18.42;53.43;101518.28;6204806;23;20004;-79
2021/03/15 09:24:01;;;;;;;1.67;0.90;;;;;;;18.42;53.46;101517.41;6204793;23;20496;-82
2021/03/15 09:26:29;;;;;;;1.33;0.55;;;;;;;18.41;53.31;101526.97;6204294;23;20028;-85
2021/03/15 09:28:57;;;;;;;1.70;0.70;;;;;;;18.36;53.36;101523.50;6217468;23;20008;-78
2021/03/15 09:31:23;;;;;;;4.32;1.00;;;;;;;18.35;53.64;101519.16;6181977;23;20064;-78
2021/03/15 09:33:57;;;;;;;2.97;0.98;;;;;;;18.37;53.27;101525.22;6234782;23;20424;-77
2021/03/15 09:36:28;;;;;;;1.38;0.60;;;;;;;18.38;53.57;101524.38;6183960;23;20012;-78
2021/03/15 09:38:57;;;;;;;1.58;0.68;;;;;;;18.36;53.42;101523.50;6240280;23;20000;-78
2021/03/15 09:41:27;;;;;;;1.83;0.80;;;;;;;18.40;53.36;101524.34;6214509;23;20039;-79
2021/03/15 09:43:53;;;;;;;2.03;0.75;;;;;;;18.43;53.22;101534.78;6188801;23;20005;-79
2021/03/15 09:46:42;;;;;;;1.77;0.60;;;;;;;18.41;53.21;101537.38;6238405;23;20015;-78
2021/03/15 09:49:40;;;;;;;1.83;0.70;;;;;;;18.39;53.11;101540.88;6211919;23;20028;-79
2021/03/15 09:52:17;;;;;;;2.47;0.70;;;;;;;18.38;53.51;101544.31;6214297;23;20009;-80
2021/03/15 09:55:07;;;;;;;1.30;0.60;;;;;;;18.39;53.18;101538.25;6233420;23;20000;-79
2021/03/15 09:57:32;;;;;;;1.40;0.80;;;;;;;18.37;53.24;101550.44;6279321;22;20072;-79
2021/03/15 10:00:07;;;;;;;2.25;0.70;;;;;;;18.38;53.11;101545.22;6258290;22;20015;-79
2021/03/15 10:02:34;;;;;;;2.40;0.88;;;;;;;18.42;53.45;101548.66;6243658;23;20016;-78
2021/03/15 10:05:27;;;;;;;2.08;0.70;;;;;;;18.41;53.23;101542.59;6265935;23;20058;-78
2021/03/15 10:07:55;;;;;;;2.50;0.90;;;;;;;18.40;52.88;101555.63;6263131;23;20098;-78
2021/03/15 10:10:25;;;;;;;2.08;0.80;;;;;;;18.38;53.26;101550.44;6266641;23;20039;-79
2021/03/15 10:13:01;;;;;;;3.42;0.90;;;;;;;18.36;53.21;101553.91;6266728;23;20000;-78
2021/03/15 10:15:46;;;;;;;2.72;0.80;;;;;;;18.37;53.48;101559.09;6239629;23;20069;-78
2021/03/15 10:18:24;;;;;;;2.67;0.77;;;;;;;18.39;53.06;101553.91;6266549;23;20049;-79
2021/03/15 10:20:51;;;;;;;1.63;0.77;;;;;;;18.39;53.38;101552.16;6267592;23;20000;-80
2021/03/15 10:23:32;;;;;;;2.40;0.82;;;;;;;18.38;53.19;101557.34;6241893;23;20019;-78
2021/03/15 10:26:15;;;;;;;2.10;0.82;;;;;;;18.42;53.36;101559.97;6268454;23;19980;-79
2021/03/15 10:28:48;;;;;;;2.10;0.90;;;;;;;18.42;53.23;101554.78;6264379;23;20442;-78
2021/03/15 10:31:13;;;;;;;1.90;0.70;;;;;;;18.44;53.07;101579.09;6238282;23;20011;-78
2021/03/15 10:33:46;;;;;;;1.42;0.73;;;;;;;18.43;52.84;101569.53;6213016;23;20008;-79
2021/03/15 10:36:20;;;;;;;1.67;0.77;;;;;;;18.42;52.92;101579.94;6213360;23;20007;-79
2021/03/15 10:38:48;;;;;;;2.53;0.90;;;;;;;18.46;52.95;101581.69;6237430;23;20004;-78
2021/03/15 10:41:16;;;;;;;2.05;0.77;;;;;;;18.44;52.98;101581.69;6207633;23;20008;-77
2021/03/15 10:43:43;;;;;;;1.10;0.60;;;;;;;18.45;52.90;101583.41;6234143;23;20004;-78
2021/03/15 10:46:23;;;;;;;1.70;0.77;;;;;;;18.44;52.91;101588.63;6233103;23;20023;-79
2021/03/15 10:48:51;;;;;;;2.17;0.70;;;;;;;18.42;52.82;101585.16;6208021;23;20008;-79
2021/03/15 10:51:17;;;;;;;2.72;0.93;;;;;;;18.40;52.99;101592.09;6259360;23;20011;-78
2021/03/15 10:53:46;;;;;;;2.42;0.90;;;;;;;18.39;53.00;101583.41;6265444;23;20008;-79
2021/03/15 10:56:23;;;;;;;1.80;0.75;;;;;;;18.41;53.08;101591.25;6239249;23;20015;-78
2021/03/15 10:58:50;;;;;;;1.92;0.70;;;;;;;18.42;52.83;101587.75;6238803;23;20004;-78
2021/03/15 11:01:24;;;;;;;3.05;0.73;;;;;;;18.46;52.66;101597.31;6239146;23;20008;-79
2021/03/15 11:04:07;;;;;;;2.83;0.88;;;;;;;18.48;52.87;101606.84;6239125;23;20008;-78
2021/03/15 11:06:33;;;;;;;2.08;0.75;;;;;;;18.45;52.73;101606.00;6265487;23;20020;-79
2021/03/15 11:08:59;;;;;;;2.15;0.73;;;;;;;18.44;52.99;101612.09;6265545;23;20019;-78
2021/03/15 11:11:32;;;;;;;1.88;0.63;;;;;;;18.42;52.78;101604.28;6239430;23;20007;-78
2021/03/15 11:14:06;;;;;;;2.15;1.00;;;;;;;18.44;53.05;101614.69;6264956;23;20003;-78
2021/03/15 11:16:58;;;;;;;3.10;0.95;;;;;;;18.48;52.70;101619.03;6239076;23;20008;-78
2021/03/15 11:19:24;;;;;;;1.83;0.88;;;;;;;18.55;52.40;101627.72;6263336;23;20026;-79
2021/03/15 11:21:51;;;;;;;0.98;0.50;;;;;;;18.61;52.30;101625.97;6236672;23;20015;-81
2021/03/15 11:24:27;;;;;;;1.77;0.60;;;;;;;18.65;52.32;101619.88;6263831;23;20004;-81
2021/03/15 11:26:56;;;;;;;2.90;0.80;;;;;;;18.61;52.30;101628.56;6239051;23;20039;-80
2021/03/15 11:29:45;;;;;;;1.58;0.60;;;;;;;18.58;52.67;101635.53;6266309;23;20027;-86
2021/03/15 11:32:13;;;;;;;2.03;0.75;;;;;;;18.55;52.47;101644.22;6262795;23;20092;-79
2021/03/15 11:34:49;;;;;;;1.15;0.50;;;;;;;18.56;52.59;101638.16;6259980;23;20004;-78
2021/03/15 11:37:22;;;;;;;2.50;0.57;;;;;;;18.55;52.42;101644.22;6260345;23;20003;-78
2021/03/15 11:39:48;;;;;;;1.50;0.68;;;;;;;18.50;52.76;101639.00;6259597;23;20040;-78
2021/03/15 11:42:29;;;;;;;1.83;0.82;;;;;;;18.53;52.52;101645.97;6208050;23;20004;-78
2021/03/15 11:44:54;;;;;;;1.98;0.60;;;;;;;18.56;52.72;101640.75;6259798;23;20023;-80
2021/03/15 11:47:20;;;;;;;1.40;0.65;;;;;;;18.54;52.77;101644.22;6257688;23;20011;-78
2021/03/15 11:49:45;;;;;;;2.15;0.73;;;;;;;18.49;52.85;101646.84;6262086;23;20431;-78
2021/03/15 11:52:11;;;;;;;1.23;0.52;;;;;;;18.52;52.62;101653.78;6259728;23;20078;-79
2021/03/15 11:54:44;;;;;;;1.90;0.70;;;;;;;18.52;52.83;101651.19;6257726;23;20083;-79
2021/03/15 11:57:09;;;;;;;2.00;0.85;;;;;;;18.54;52.80;101672.91;6257245;23;20011;-78
2021/03/15 11:59:34;;;;;;;4.18;0.90;;;;;;;18.52;52.66;101656.41;6231104;23;20424;-76
2021/03/15 12:02:00;;;;;;;3.25;0.90;;;;;;;18.48;53.04;101663.34;6262298;23;20028;-78
2021/03/15 12:04:29;;;;;;;2.55;0.80;;;;;;;18.48;53.17;101663.34;6242652;23;20084;-78
2021/03/15 12:06:54;;;;;;;1.92;0.80;;;;;;;18.48;52.95;101656.38;6239769;23;20004;-78
2021/03/15 12:09:19;;;;;;;3.25;0.80;;;;;;;18.46;52.86;101668.53;6236275;23;20011;-79
2021/03/15 12:11:45;;;;;;;2.63;0.70;;;;;;;18.48;53.11;101665.94;6233029;23;20007;-78
2021/03/15 12:14:10;;;;;;;3.97;0.90;;;;;;;18.49;52.99;101672.91;6236164;23;20008;-79
2021/03/15 12:16:38;;;;;;;2.22;0.75;;;;;;;18.48;52.77;101663.34;6186360;23;20012;-78
2021/03/15 12:19:03;;;;;;;1.63;0.70;;;;;;;18.49;52.67;101665.09;6233102;23;20447;-78
2021/03/15 12:21:29;;;;;;;1.88;0.80;;;;;;;18.49;53.00;101660.75;6230525;23;20004;-78
2021/03/15 12:23:54;;;;;;;3.78;0.70;;;;;;;18.49;52.78;101665.97;6230268;23;20012;-78
2021/03/15 12:26:21;;;;;;;1.92;0.70;;;;;;;18.50;52.79;101682.44;6260862;22;20001;-79
2021/03/15 12:28:46;;;;;;;2.72;0.90;;;;;;;18.47;52.71;101667.69;6260115;22;20370;-79
2021/03/15 12:31:12;;;;;;;3.63;0.82;;;;;;;18.49;52.73;101670.31;6256860;22;20020;-79
2021/03/15 12:33:37;;;;;;;2.47;0.70;;;;;;;18.49;52.87;101680.72;6262824;22;20011;-78
2021/03/15 12:36:03;;;;;;;3.10;0.80;;;;;;;18.46;52.95;101675.50;6236766;22;20068;-80
2021/03/15 12:38:30;;;;;;;3.00;1.00;;;;;;;18.47;53.08;101690.28;6291383;22;20004;-79
2021/03/15 12:40:55;;;;;;;3.10;0.77;;;;;;;18.46;52.93;101686.78;6249124;22;20032;-79